Time;durP1;ratioP1;P1;durP2;ratioP2;P2;SDS_P1;SDS_P2;PMS_P1;PMS_P2;Temp;Humidity;BMP_temperature;BMP_pressure;BME280_temperature;BME280_humidity;BME280_pressure;Samples;Min_cycle;Max_cycle;Signal;HPM_P1;HPM_P2
2024/03/05 00:01:32;;;;;;;22.88;10.90;;;10.70;80.70;;;;;;4968856;28;112822;-50
2024/03/05 00:03:59;;;;;;;16.42;10.70;;;10.60;80.70;;;;;;4980195;28;112819;-50
2024/03/05 00:06:25;;;;;;;20.60;10.20;;;10.70;80.40;;;;;;4972100;28;116056;-53
2024/03/05 00:08:51;;;;;;;13.35;10.05;;;10.80;80.30;;;;;;4974867;28;113022;-50
2024/03/05 00:11:16;;;;;;;17.45;10.38;;;10.80;80.00;;;;;;4969195;28;112666;-50
2024/03/05 00:13:43;;;;;;;16.38;10.63;;;10.70;79.80;;;;;;4988499;28;112714;-51
2024/03/05 00:16:09;;;;;;;17.85;10.50;;;10.60;80.00;;;;;;4981386;28;116186;-51
2024/03/05 00:18:35;;;;;;;16.55;11.00;;;10.70;80.00;;;;;;4977688;28;114311;-50
2024/03/05 00:21:01;;;;;;;18.10;10.73;;;10.60;80.00;;;;;;4985014;28;112708;-50
2024/03/05 00:23:26;;;;;;;15.73;10.50;;;10.70;80.00;;;;;;4984030;28;112947;-52
2024/03/05 00:25:52;;;;;;;18.30;10.90;;;10.80;79.80;;;;;;4986745;28;113226;-50
2024/03/05 00:28:18;;;;;;;16.55;10.02;;;10.70;79.90;;;;;;4986204;28;114329;-49
2024/03/05 00:30:45;;;;;;;17.27;10.30;;;10.80;79.70;;;;;;4973567;28;113137;-50
2024/03/05 00:33:11;;;;;;;17.88;10.48;;;10.70;79.60;;;;;;4974674;28;114513;-50
2024/03/05 00:35:36;;;;;;;17.10;10.45;;;10.60;80.10;;;;;;4967497;28;114624;-50
2024/03/05 00:38:03;;;;;;;21.40;11.68;;;10.70;80.00;;;;;;4985008;28;112722;-50
2024/03/05 00:40:30;;;;;;;20.27;10.23;;;10.60;79.70;;;;;;4985838;28;112917;-50
2024/03/05 00:42:56;;;;;;;16.83;10.35;;;10.70;79.70;;;;;;4979091;28;112774;-50
2024/03/05 00:45:22;;;;;;;20.85;10.45;;;10.60;79.90;;;;;;4979348;28;113489;-50
2024/03/05 00:47:48;;;;;;;16.48;10.52;;;10.60;80.20;;;;;;4977416;28;112950;-50
2024/03/05 00:50:13;;;;;;;15.57;10.05;;;10.60;80.10;;;;;;4967944;28;112955;-51
2024/03/05 00:52:39;;;;;;;15.23;10.38;;;10.50;80.50;;;;;;4968387;28;112972;-50
2024/03/05 00:55:08;;;;;;;16.77;10.82;;;10.40;80.70;;;;;;4967245;28;113582;-50
2024/03/05 00:57:36;;;;;;;20.40;10.48;;;10.30;80.90;;;;;;4966719;28;112792;-50
2024/03/05 01:00:03;;;;;;;19.08;11.18;;;10.20;81.20;;;;;;4967980;28;112775;-50
2024/03/05 01:02:28;;;;;;;15.98;11.25;;;10.00;81.70;;;;;;4967775;28;112993;-50
2024/03/05 01:04:54;;;;;;;19.63;10.88;;;10.10;81.80;;;;;;4966954;28;114721;-50
2024/03/05 01:07:20;;;;;;;17.35;11.10;;;10.10;81.80;;;;;;4966905;28;112614;-50
2024/03/05 01:09:48;;;;;;;17.10;12.07;;;10.10;81.70;;;;;;4966828;28;112865;-50
2024/03/05 01:12:14;;;;;;;20.40;11.50;;;10.00;81.90;;;;;;4975051;28;112827;-52
2024/03/05 01:14:40;;;;;;;18.33;11.45;;;10.00;81.90;;;;;;4986682;28;115018;-50
2024/03/05 01:17:08;;;;;;;20.10;11.68;;;10.00;82.20;;;;;;4986650;28;112761;-50
2024/03/05 01:19:34;;;;;;;22.75;12.20;;;9.90;82.40;;;;;;4987558;28;112555;-50
2024/03/05 01:22:00;;;;;;;19.33;12.15;;;10.00;82.10;;;;;;4987288;28;112802;-52
2024/03/05 01:24:27;;;;;;;22.65;12.77;;;10.10;82.00;;;;;;4986755;28;113259;-49
2024/03/05 01:26:53;;;;;;;19.08;12.63;;;10.00;82.00;;;;;;4986503;28;112728;-50
2024/03/05 01:29:21;;;;;;;20.02;11.60;;;10.00;81.80;;;;;;4987236;28;112866;-50
2024/03/05 01:31:48;;;;;;;22.58;12.70;;;10.10;81.60;;;;;;4987345;28;112737;-50
2024/03/05 01:34:13;;;;;;;19.27;12.38;;;10.10;81.60;;;;;;4987301;28;113181;-50
2024/03/05 01:36:39;;;;;;;18.25;11.93;;;10.10;81.50;;;;;;4986715;28;113237;-50
2024/03/05 01:39:05;;;;;;;21.67;11.95;;;10.10;81.50;;;;;;4987550;28;112890;-50
2024/03/05 01:41:31;;;;;;;18.90;12.25;;;10.10;81.20;;;;;;4987561;28;112760;-50
2024/03/05 01:43:56;;;;;;;16.08;11.50;;;10.10;81.40;;;;;;4986234;28;113187;-50
2024/03/05 01:46:23;;;;;;;18.98;12.25;;;10.00;81.20;;;;;;4985963;28;113834;-50
2024/03/05 01:48:51;;;;;;;20.58;11.95;;;10.10;81.20;;;;;;4986987;28;114394;-50
2024/03/05 01:51:19;;;;;;;16.70;11.50;;;9.90;81.10;;;;;;4987286;28;112724;-50
2024/03/05 01:53:45;;;;;;;20.30;11.95;;;10.00;81.00;;;;;;4986018;28;113551;-50
2024/03/05 01:56:13;;;;;;;17.40;11.70;;;10.10;80.70;;;;;;4985963;28;113473;-49
2024/03/05 01:58:42;;;;;;;23.52;12.00;;;10.00;80.80;;;;;;4986923;28;112790;-50
2024/03/05 02:01:10;;;;;;;21.27;13.15;;;10.10;80.40;;;;;;4986743;28;112856;-51
2024/03/05 02:03:37;;;;;;;20.17;13.15;;;10.00;80.30;;;;;;4986056;28;113258;-49
2024/03/05 02:06:07;;;;;;;23.95;13.55;;;9.90;80.80;;;;;;4986028;28;113013;-51
2024/03/05 02:08:34;;;;;;;21.02;13.10;;;9.90;80.80;;;;;;4986564;28;112693;-50
2024/03/05 02:11:00;;;;;;;19.30;12.55;;;9.80;81.10;;;;;;4979989;28;112783;-50
2024/03/05 02:13:26;;;;;;;17.98;11.65;;;9.80;81.10;;;;;;4984937;28;115247;-50
2024/03/05 02:15:52;;;;;;;23.35;11.75;;;9.80;80.80;;;;;;4978925;28;114401;-50
2024/03/05 02:18:17;;;;;;;23.10;11.35;;;9.80;80.60;;;;;;4979638;28;112696;-49
2024/03/05 02:20:43;;;;;;;14.30;10.65;;;9.80;80.40;;;;;;4975199;28;112808;-49
2024/03/05 02:23:09;;;;;;;17.23;10.98;;;9.80;79.90;;;;;;4983297;28;113778;-49
2024/03/05 02:25:35;;;;;;;20.50;10.45;;;9.90;80.00;;;;;;4985643;28;114176;-50
2024/03/05 02:28:02;;;;;;;19.42;11.13;;;9.80;79.70;;;;;;4985069;28;112722;-51
2024/03/05 02:30:30;;;;;;;16.70;10.43;;;9.90;79.50;;;;;;4974089;28;113419;-49
2024/03/05 02:32:58;;;;;;;19.27;11.27;;;9.80;79.80;;;;;;4986060;28;113368;-49
2024/03/05 02:35:23;;;;;;;20.90;11.27;;;9.80;80.20;;;;;;4985353;28;112655;-49
2024/03/05 02:37:49;;;;;;;14.95;10.82;;;9.90;80.10;;;;;;4986604;28;112649;-50
2024/03/05 02:40:15;;;;;;;19.83;11.13;;;9.80;79.80;;;;;;4986480;28;112658;-49
2024/03/05 02:42:42;;;;;;;17.13;10.45;;;9.80;79.80;;;;;;4985580;28;113451;-50
2024/03/05 02:45:11;;;;;;;26.63;11.15;;;9.70;80.00;;;;;;4983394;28;112737;-50
2024/03/05 02:47:40;;;;;;;16.35;11.30;;;9.70;80.30;;;;;;4974521;28;112655;-49
2024/03/05 02:50:09;;;;;;;21.38;11.82;;;9.60;80.50;;;;;;4986108;28;112707;-50
2024/03/05 02:52:36;;;;;;;20.02;11.80;;;9.60;80.70;;;;;;4985553;28;113698;-49
2024/03/05 02:55:02;;;;;;;15.70;11.23;;;9.60;80.40;;;;;;4985017;28;112664;-50
2024/03/05 02:57:28;;;;;;;18.38;11.00;;;9.60;80.90;;;;;;4986116;28;112724;-50
2024/03/05 02:59:53;;;;;;;18.00;10.98;;;9.60;80.60;;;;;;4986016;28;112782;-49
2024/03/05 03:02:22;;;;;;;16.75;10.63;;;9.50;80.50;;;;;;5016947;28;114491;-51
2024/03/05 03:04:51;;;;;;;18.27;11.48;;;9.50;80.60;;;;;;4983671;28;114365;-49
2024/03/05 03:07:20;;;;;;;19.45;10.60;;;9.40;81.20;;;;;;4985878;28;112837;-50
2024/03/05 03:09:46;;;;;;;16.83;10.68;;;9.40;81.00;;;;;;4986101;28;112910;-49
2024/03/05 03:12:12;;;;;;;17.48;11.35;;;9.50;80.60;;;;;;4984996;28;113252;-50
2024/03/05 03:14:42;;;;;;;16.75;10.00;;;9.40;80.60;;;;;;4984961;28;112614;-51
2024/03/05 03:17:08;;;;;;;17.75;11.45;;;9.40;80.50;;;;;;4986007;28;112882;-50
2024/03/05 03:19:33;;;;;;;22.73;11.60;;;9.40;80.80;;;;;;4981552;28;112881;-49
2024/03/05 03:21:59;;;;;;;15.38;11.13;;;9.40;80.60;;;;;;4975371;28;113797;-49
2024/03/05 03:24:25;;;;;;;18.45;10.80;;;9.40;80.50;;;;;;4984648;28;112652;-50
2024/03/05 03:26:51;;;;;;;15.55;11.07;;;9.20;80.20;;;;;;4985872;28;112898;-49
2024/03/05 03:29:16;;;;;;;17.83;11.95;;;9.10;80.50;;;;;;4985123;28;112728;-50
2024/03/05 03:31:45;;;;;;;15.65;12.27;;;9.00;80.60;;;;;;4984851;28;113302;-49
2024/03/05 03:34:17;;;;;;;19.08;12.20;;;8.90;81.10;;;;;;4987697;28;112818;-50
2024/03/05 03:36:44;;;;;;;17.48;11.77;;;8.90;81.40;;;;;;4988875;28;112746;-51
2024/03/05 03:39:11;;;;;;;18.30;12.60;;;8.80;81.70;;;;;;4989322;28;113074;-49
2024/03/05 03:41:40;;;;;;;19.60;12.23;;;8.80;81.90;;;;;;4988291;28;113227;-52
2024/03/05 03:44:06;;;;;;;21.17;13.13;;;8.80;81.90;;;;;;4988017;28;114700;-50
2024/03/05 03:46:34;;;;;;;19.02;12.20;;;8.70;82.00;;;;;;4988868;28;113126;-49
2024/03/05 03:49:03;;;;;;;17.63;12.32;;;8.80;81.90;;;;;;4988604;28;112867;-50
2024/03/05 03:51:29;;;;;;;19.27;12.77;;;8.80;81.70;;;;;;4987852;28;113287;-49
2024/03/05 03:53:54;;;;;;;18.20;12.57;;;8.70;81.80;;;;;;4988146;28;112901;-51
2024/03/05 03:56:20;;;;;;;15.27;12.50;;;8.70;81.90;;;;;;4987454;28;112679;-49
2024/03/05 03:58:46;;;;;;;17.98;12.52;;;8.70;82.00;;;;;;4989031;28;112894;-49
2024/03/05 04:01:13;;;;;;;16.98;12.18;;;8.60;82.10;;;;;;4987771;28;115372;-56
2024/03/05 04:03:39;;;;;;;19.02;12.80;;;8.70;82.10;;;;;;4987629;28;113700;-49
2024/03/05 04:06:05;;;;;;;17.48;13.02;;;8.60;82.10;;;;;;4989121;28;112483;-49
2024/03/05 04:08:31;;;;;;;17.13;12.27;;;8.60;82.40;;;;;;4988808;28;112728;-50
2024/03/05 04:10:57;;;;;;;16.58;12.82;;;8.60;82.40;;;;;;4987771;28;113195;-51
2024/03/05 04:13:23;;;;;;;20.60;13.32;;;8.50;82.60;;;;;;4987492;28;112984;-53
2024/03/05 04:15:50;;;;;;;19.83;12.30;;;8.40;82.70;;;;;;4988448;28;112756;-49
2024/03/05 04:18:16;;;;;;;22.10;13.07;;;8.40;83.00;;;;;;4988669;28;112921;-49
2024/03/05 04:20:41;;;;;;;18.17;11.77;;;8.40;82.80;;;;;;4972545;28;114544;-50
2024/03/05 04:23:09;;;;;;;18.08;11.95;;;8.40;82.80;;;;;;4987137;28;112867;-50
2024/03/05 04:25:39;;;;;;;19.30;12.95;;;8.40;82.70;;;;;;4987075;28;112967;-55
2024/03/05 04:28:15;;;;;;;19.98;13.80;;;8.40;82.50;;;;;;4987199;28;112909;-51
2024/03/05 04:30:41;;;;;;;19.85;13.15;;;8.40;82.60;;;;;;4987336;28;113260;-54
2024/03/05 04:33:11;;;;;;;21.27;13.23;;;8.50;82.50;;;;;;4987998;28;112873;-52
2024/03/05 04:35:37;;;;;;;20.67;13.40;;;8.40;82.70;;;;;;4988351;28;115568;-50
2024/03/05 04:38:05;;;;;;;18.98;13.60;;;8.30;82.70;;;;;;4988071;28;112710;-49
2024/03/05 04:40:33;;;;;;;19.13;13.95;;;8.10;83.30;;;;;;4987279;28;114345;-49
2024/03/05 04:42:59;;;;;;;18.02;13.32;;;8.20;83.50;;;;;;4987378;28;113093;-50
2024/03/05 04:45:25;;;;;;;23.00;13.57;;;8.20;83.20;;;;;;4986938;28;112674;-49
2024/03/05 04:47:51;;;;;;;21.08;12.98;;;8.30;83.00;;;;;;4988422;28;114250;-49
2024/03/05 04:50:17;;;;;;;16.42;12.75;;;8.20;83.20;;;;;;4987007;28;113493;-50
2024/03/05 04:52:44;;;;;;;25.02;13.88;;;8.20;82.90;;;;;;4987098;28;114038;-49
2024/03/05 04:55:10;;;;;;;16.92;13.07;;;8.20;82.80;;;;;;4988202;28;112947;-49
2024/03/05 04:57:35;;;;;;;19.02;13.25;;;8.20;83.00;;;;;;4988275;28;112709;-49
2024/03/05 05:00:01;;;;;;;21.48;13.27;;;8.20;83.00;;;;;;4986811;28;113465;-50
2024/03/05 05:02:27;;;;;;;23.02;13.43;;;8.10;83.50;;;;;;4986908;28;113016;-49
2024/03/05 05:04:53;;;;;;;26.48;14.57;;;8.10;83.60;;;;;;4972977;28;112605;-49
2024/03/05 05:07:23;;;;;;;19.42;13.70;;;8.10;83.80;;;;;;4987163;28;112854;-49
2024/03/05 05:09:49;;;;;;;18.88;13.60;;;8.10;83.80;;;;;;4986856;28;113204;-53
2024/03/05 05:12:15;;;;;;;21.13;14.73;;;8.20;83.60;;;;;;4986921;28;112650;-49
2024/03/05 05:14:40;;;;;;;21.15;13.20;;;8.20;82.80;;;;;;4987763;28;113374;-49
2024/03/05 05:17:06;;;;;;;13.43;11.63;;;8.10;82.70;;;;;;4987818;28;112638;-49
2024/03/05 05:19:32;;;;;;;19.63;13.13;;;8.00;82.60;;;;;;4982967;28;113140;-49
2024/03/05 05:21:57;;;;;;;16.17;12.23;;;8.00;83.00;;;;;;4976784;28;112982;-50
2024/03/05 05:24:23;;;;;;;19.92;13.32;;;7.90;83.20;;;;;;4987400;28;112985;-50
2024/03/05 05:26:49;;;;;;;17.60;12.40;;;7.90;83.10;;;;;;4987647;28;113130;-49
2024/03/05 05:29:15;;;;;;;18.63;12.23;;;7.90;83.20;;;;;;4986140;28;114535;-49
2024/03/05 05:31:40;;;;;;;19.08;12.48;;;7.90;83.30;;;;;;4986626;28;115149;-52
2024/03/05 05:34:06;;;;;;;15.95;11.63;;;8.00;83.00;;;;;;4987867;28;112572;-50
2024/03/05 05:36:32;;;;;;;17.55;10.68;;;8.00;83.20;;;;;;4987456;28;112815;-50
2024/03/05 05:39:01;;;;;;;21.60;11.00;;;8.00;83.20;;;;;;4986527;28;113664;-49
2024/03/05 05:41:27;;;;;;;18.17;10.95;;;8.10;83.10;;;;;;4986172;28;112600;-49
2024/03/05 05:43:52;;;;;;;14.82;10.68;;;8.10;82.90;;;;;;4987275;28;113146;-50
2024/03/05 05:46:22;;;;;;;20.65;12.30;;;8.10;82.90;;;;;;4987264;28;112684;-54
2024/03/05 05:48:52;;;;;;;17.08;13.43;;;8.00;82.80;;;;;;4986195;28;113370;-51
2024/03/05 05:51:18;;;;;;;19.92;15.25;;;8.10;82.90;;;;;;4986075;28;112601;-50
2024/03/05 05:53:45;;;;;;;24.27;15.43;;;7.60;83.10;;;;;;4987069;28;112588;-52
2024/03/05 05:56:10;;;;;;;18.00;14.38;;;7.60;83.90;;;;;;4986600;28;112685;-49
2024/03/05 05:58:36;;;;;;;19.45;13.00;;;7.70;83.50;;;;;;4986058;28;113197;-49
2024/03/05 06:01:06;;;;;;;17.88;12.60;;;7.80;83.60;;;;;;4986150;28;112864;-50
2024/03/05 06:03:35;;;;;;;20.95;13.75;;;7.90;82.50;;;;;;4986736;28;112772;-50
2024/03/05 06:06:01;;;;;;;16.50;12.38;;;8.00;82.30;;;;;;4985658;28;113099;-49
2024/03/05 06:08:27;;;;;;;18.65;12.68;;;7.90;82.60;;;;;;4986058;28;114698;-51
2024/03/05 06:10:53;;;;;;;22.98;12.57;;;7.90;83.00;;;;;;4985597;28;113165;-50
2024/03/05 06:13:20;;;;;;;25.30;12.63;;;7.90;83.10;;;;;;4986525;28;113598;-49
2024/03/05 06:15:48;;;;;;;20.67;12.27;;;7.90;83.20;;;;;;4986514;28;112672;-50
2024/03/05 06:18:14;;;;;;;21.20;11.10;;;7.90;83.60;;;;;;4985959;28;113148;-49
2024/03/05 06:20:40;;;;;;;22.23;11.38;;;8.10;83.00;;;;;;4972784;28;112803;-49
2024/03/05 06:23:05;;;;;;;17.80;10.93;;;8.20;83.20;;;;;;4984384;28;112834;-50
2024/03/05 06:25:32;;;;;;;19.50;9.98;;;8.20;83.10;;;;;;4985320;28;112915;-49
2024/03/05 06:27:57;;;;;;;20.90;9.30;;;8.40;82.90;;;;;;4985415;28;114389;-55
2024/03/05 06:30:23;;;;;;;17.90;8.80;;;8.40;82.50;;;;;;4985785;28;112957;-49
2024/03/05 06:32:51;;;;;;;20.67;8.77;;;8.50;82.10;;;;;;4986917;28;112572;-50
2024/03/05 06:35:22;;;;;;;24.92;10.32;;;8.60;82.00;;;;;;4987835;28;114228;-50
2024/03/05 06:37:50;;;;;;;;;;;8.70;82.10;;;;;;4985539;28;114631;-53
2024/03/05 06:40:19;;;;;;;24.33;9.40;;;8.80;81.80;;;;;;4987450;28;112857;-50
2024/03/05 06:42:52;;;;;;;18.35;8.55;;;8.80;82.00;;;;;;4986958;28;112874;-49
2024/03/05 06:45:27;;;;;;;14.73;8.20;;;9.00;81.80;;;;;;4987451;28;113251;-49
2024/03/05 06:47:56;;;;;;;21.88;8.32;;;9.20;81.50;;;;;;4986131;28;113264;-50
2024/03/05 06:50:23;;;;;;;19.38;7.85;;;9.30;81.00;;;;;;4985465;28;113432;-49
2024/03/05 06:58:22;;;;;;;12.93;6.68;;;9.60;80.60;;;;;;4986491;28;113106;-50
2024/03/05 07:00:49;;;;;;;15.23;7.50;;;9.80;80.40;;;;;;4985484;28;113049;-50
2024/03/05 07:03:15;;;;;;;14.77;7.10;;;9.90;80.10;;;;;;4986913;28;112541;-50
2024/03/05 07:05:42;;;;;;;13.98;6.90;;;10.10;79.80;;;;;;4985013;28;113313;-50
2024/03/05 07:08:08;;;;;;;16.98;7.25;;;10.30;79.10;;;;;;4984663;28;114564;-52
2024/03/05 07:10:37;;;;;;;19.40;7.20;;;10.40;78.70;;;;;;4985476;28;112760;-50
2024/03/05 07:13:03;;;;;;;16.60;6.40;;;10.70;78.60;;;;;;4986672;28;113732;-51
2024/03/05 07:15:29;;;;;;;16.85;6.30;;;11.00;77.90;;;;;;4986484;28;113834;-54
2024/03/05 07:17:55;;;;;;;18.58;7.88;;;11.30;77.20;;;;;;4985666;28;113288;-51
2024/03/05 07:20:27;;;;;;;16.77;7.22;;;11.50;76.70;;;;;;4975090;28;112607;-50
2024/03/05 07:22:54;;;;;;;21.67;7.15;;;11.60;75.90;;;;;;4984285;28;112531;-50
2024/03/05 07:25:22;;;;;;;18.08;7.65;;;11.80;75.50;;;;;;4986854;28;113208;-50
2024/03/05 07:27:49;;;;;;;16.70;7.25;;;12.00;74.80;;;;;;4985089;28;113437;-50
2024/03/05 07:30:16;;;;;;;14.30;8.00;;;12.10;75.00;;;;;;4985112;28;112751;-49
2024/03/05 07:32:43;;;;;;;22.02;8.43;;;12.30;74.20;;;;;;4986230;28;112848;-50
2024/03/05 07:35:09;;;;;;;21.70;8.50;;;12.40;74.10;;;;;;4987213;28;112976;-50
2024/03/05 07:37:35;;;;;;;19.50;8.65;;;12.50;74.10;;;;;;4985603;28;113353;-51
2024/03/05 07:40:15;;;;;;;26.38;9.75;;;12.70;74.40;;;;;;4985321;28;113020;-50
2024/03/05 07:42:51;;;;;;;25.60;11.30;;;12.80;74.50;;;;;;4986489;28;112662;-50
2024/03/05 07:45:18;;;;;;;21.35;11.80;;;12.90;74.70;;;;;;4985740;28;112641;-50
2024/03/05 07:47:44;;;;;;;21.88;12.95;;;13.00;74.90;;;;;;4984756;28;113765;-51
2024/03/05 07:50:14;;;;;;;27.10;13.15;;;13.10;74.80;;;;;;4984311;28;113805;-50
2024/03/05 07:52:40;;;;;;;23.70;12.43;;;13.30;74.40;;;;;;4976218;28;112660;-50
2024/03/05 07:55:11;;;;;;;18.60;12.45;;;13.40;74.60;;;;;;4968738;28;112668;-50
2024/03/05 07:57:40;;;;;;;26.35;12.13;;;13.50;74.30;;;;;;4964671;28;115848;-50
2024/03/05 08:00:13;;;;;;;22.38;12.00;;;13.60;73.90;;;;;;4964713;28;113769;-50
2024/03/05 08:02:41;;;;;;;25.38;11.95;;;13.60;74.00;;;;;;4965683;28;112803;-52
2024/03/05 08:05:07;;;;;;;22.23;11.95;;;13.70;73.70;;;;;;4965833;28;112767;-50
2024/03/05 08:07:35;;;;;;;24.35;12.05;;;13.90;73.50;;;;;;4964500;28;114427;-52
2024/03/05 08:10:08;;;;;;;19.83;11.90;;;14.10;72.70;;;;;;4964640;28;113873;-51
2024/03/05 08:12:39;;;;;;;24.02;12.25;;;14.30;72.60;;;;;;4965730;28;112518;-50
2024/03/05 08:15:06;;;;;;;24.63;12.27;;;14.50;72.20;;;;;;4968957;28;112829;-50
2024/03/05 08:17:35;;;;;;;19.05;11.80;;;14.80;71.10;;;;;;4969663;28;113373;-50
2024/03/05 08:20:03;;;;;;;26.13;12.80;;;15.10;70.60;;;;;;4971475;28;112727;-53
2024/03/05 08:22:29;;;;;;;19.13;12.20;;;15.00;70.60;;;;;;4982286;28;113173;-53
2024/03/05 08:24:54;;;;;;;24.00;12.57;;;15.40;69.30;;;;;;4967176;28;112952;-50
2024/03/05 08:27:20;;;;;;;22.35;12.73;;;15.20;70.00;;;;;;4979283;28;113336;-50
2024/03/05 08:29:49;;;;;;;26.77;13.45;;;15.30;69.80;;;;;;4968615;28;113656;-51
2024/03/05 08:32:16;;;;;;;29.38;12.82;;;15.40;69.30;;;;;;4968430;28;112617;-50
2024/03/05 08:34:42;;;;;;;23.27;12.57;;;15.50;69.00;;;;;;4968929;28;112762;-51
2024/03/05 08:37:11;;;;;;;23.63;12.95;;;15.60;68.60;;;;;;4967694;28;113187;-51
2024/03/05 08:39:39;;;;;;;22.23;12.85;;;15.40;69.10;;;;;;4967186;28;113825;-51
2024/03/05 08:42:05;;;;;;;22.48;13.05;;;15.40;69.30;;;;;;4968464;28;112894;-50
2024/03/05 08:44:31;;;;;;;21.90;12.57;;;15.30;70.00;;;;;;4968432;28;115185;-50
2024/03/05 08:46:57;;;;;;;21.35;11.82;;;15.50;69.40;;;;;;4971134;28;114439;-54
2024/03/05 08:49:25;;;;;;;17.98;11.13;;;15.80;68.60;;;;;;4986716;28;112766;-52
2024/03/05 08:51:53;;;;;;;21.77;11.32;;;16.20;67.60;;;;;;4970882;28;112990;-50
2024/03/05 08:54:18;;;;;;;20.02;12.43;;;16.40;66.60;;;;;;4967905;28;112743;-51
2024/03/05 08:56:44;;;;;;;19.65;11.98;;;16.70;65.90;;;;;;4968870;28;113101;-52
2024/03/05 08:59:10;;;;;;;21.42;12.60;;;17.00;65.00;;;;;;4973420;28;113494;-52
2024/03/05 09:01:36;;;;;;;19.88;11.35;;;17.10;63.50;;;;;;4966114;28;113443;-51
2024/03/05 09:04:06;;;;;;;24.02;11.77;;;16.80;65.20;;;;;;4966422;28;112870;-50
2024/03/05 09:06:35;;;;;;;16.92;11.38;;;16.90;65.50;;;;;;4964942;28;115274;-50
2024/03/05 09:09:01;;;;;;;23.08;11.18;;;17.30;63.90;;;;;;4965055;28;113028;-51
2024/03/05 09:11:26;;;;;;;20.00;11.68;;;17.70;63.20;;;;;;4966496;28;113308;-51
2024/03/05 09:13:52;;;;;;;23.58;11.02;;;18.10;61.30;;;;;;4967177;28;113267;-50
2024/03/05 09:16:17;;;;;;;23.00;11.07;;;18.40;59.70;;;;;;4966545;28;113154;-52
2024/03/05 09:18:43;;;;;;;23.30;10.85;;;18.80;59.50;;;;;;4966602;28;113243;-51
2024/03/05 09:21:11;;;;;;;22.27;9.98;;;18.60;58.30;;;;;;4970619;28;113676;-53
2024/03/05 09:23:39;;;;;;;19.63;9.27;;;18.80;58.70;;;;;;5019160;28;112818;-51
2024/03/05 09:26:07;;;;;;;21.85;9.98;;;19.30;57.20;;;;;;4987302;28;115204;-50
2024/03/05 09:28:34;;;;;;;19.23;9.25;;;19.50;56.00;;;;;;4986599;28;113363;-50
2024/03/05 09:31:00;;;;;;;18.88;9.77;;;19.80;55.00;;;;;;4987011;28;112771;-51
2024/03/05 09:33:26;;;;;;;18.25;9.30;;;20.00;55.20;;;;;;4988566;28;112817;-50
2024/03/05 09:35:52;;;;;;;17.42;8.90;;;20.60;53.50;;;;;;4987217;28;113180;-51
2024/03/05 09:38:18;;;;;;;14.80;8.50;;;20.80;52.90;;;;;;4987405;28;113091;-53
2024/03/05 09:40:45;;;;;;;16.55;9.20;;;21.00;52.50;;;;;;4988001;28;112952;-54
2024/03/05 09:43:13;;;;;;;19.58;9.50;;;21.30;51.70;;;;;;4987874;28;112995;-51
2024/03/05 09:45:41;;;;;;;20.95;9.32;;;21.70;50.20;;;;;;4986812;28;114503;-51
2024/03/05 09:48:10;;;;;;;16.98;8.43;;;21.60;49.90;;;;;;4986825;28;113392;-51
2024/03/05 09:50:37;;;;;;;23.63;9.00;;;21.90;49.50;;;;;;4987917;28;112726;-51
2024/03/05 09:53:03;;;;;;;19.45;7.93;;;22.90;49.10;;;;;;4988060;28;112711;-51
2024/03/05 09:55:29;;;;;;;16.30;6.97;;;23.70;46.50;;;;;;4986816;28;116193;-51
2024/03/05 09:57:55;;;;;;;13.98;6.70;;;24.10;44.20;;;;;;4986735;28;113396;-52
2024/03/05 10:00:22;;;;;;;13.18;5.78;;;23.90;44.20;;;;;;4987727;28;112854;-51
2024/03/05 10:02:50;;;;;;;16.92;6.10;;;24.30;44.40;;;;;;4987912;28;112733;-51
2024/03/05 10:05:18;;;;;;;18.55;5.90;;;24.30;43.30;;;;;;4986688;28;114375;-54
2024/03/05 10:07:44;;;;;;;16.55;5.57;;;24.60;42.20;;;;;;4986614;28;112999;-51
2024/03/05 10:10:12;;;;;;;14.32;6.15;;;24.70;41.00;;;;;;4987506;28;112565;-51
2024/03/05 10:12:41;;;;;;;12.43;6.55;;;24.70;42.00;;;;;;4987451;28;112773;-51
2024/03/05 10:15:23;;;;;;;15.38;7.38;;;25.50;40.90;;;;;;4986728;28;113214;-51
2024/03/05 10:17:52;;;;;;;15.57;7.00;;;25.60;40.60;;;;;;4986307;28;113882;-51
2024/03/05 10:20:29;;;;;;;12.65;6.75;;;26.10;39.90;;;;;;4975628;28;112768;-52
2024/03/05 10:23:00;;;;;;;18.92;7.22;;;27.10;38.20;;;;;;4985066;28;112719;-52
2024/03/05 10:25:28;;;;;;;13.57;6.70;;;27.10;38.30;;;;;;4986611;28;113217;-50
2024/03/05 10:27:55;;;;;;;13.90;6.32;;;27.40;38.00;;;;;;4986682;28;113390;-50
2024/03/05 10:30:20;;;;;;;15.25;6.10;;;27.40;36.20;;;;;;4986715;28;112612;-51
2024/03/05 10:32:57;;;;;;;20.00;6.38;;;26.80;37.80;;;;;;4987172;28;113296;-51
2024/03/05 10:35:23;;;;;;;15.55;6.60;;;27.90;36.10;;;;;;4986657;28;113205;-50
2024/03/05 10:38:07;;;;;;;13.00;8.63;;;28.40;35.50;;;;;;4986240;28;112781;-50
2024/03/05 10:40:34;;;;;;;13.00;6.95;;;28.00;35.50;;;;;;4987172;28;112619;-50
2024/03/05 10:43:02;;;;;;;13.00;6.65;;;27.70;36.20;;;;;;4986997;28;112767;-50
2024/03/05 10:45:28;;;;;;;17.42;6.95;;;27.80;37.10;;;;;;5018014;28;114525;-50
2024/03/05 10:47:58;;;;;;;14.98;6.15;;;28.00;36.50;;;;;;4985609;28;113678;-50
2024/03/05 10:50:27;;;;;;;12.57;4.90;;;28.70;36.10;;;;;;4986745;28;112648;-50
2024/03/05 10:52:57;;;;;;;15.60;5.45;;;29.30;33.80;;;;;;4986943;28;112648;-54
2024/03/05 10:55:23;;;;;;;11.35;5.93;;;29.30;33.80;;;;;;4985776;28;113633;-51
2024/03/05 10:58:19;;;;;;;12.00;5.70;;;29.20;33.30;;;;;;4986184;28;113093;-51
2024/03/05 11:00:46;;;;;;;13.23;5.65;;;29.00;34.00;;;;;;4986841;28;113058;-51
2024/03/05 11:03:16;;;;;;;12.25;5.68;;;29.40;32.60;;;;;;4987024;28;112849;-50
2024/03/05 11:05:56;;;;;;;13.10;5.95;;;29.40;33.00;;;;;;4986023;28;114520;-51
2024/03/05 11:08:25;;;;;;;14.73;5.60;;;28.70;33.30;;;;;;4986005;28;113100;-50
2024/03/05 11:11:09;;;;;;;17.80;6.80;;;28.70;34.20;;;;;;4972875;28;112802;-50
2024/03/05 11:13:39;;;;;;;15.98;5.82;;;29.40;33.40;;;;;;4986736;28;113373;-50
2024/03/05 11:16:06;;;;;;;13.00;6.00;;;29.60;34.00;;;;;;4985528;28;113242;-50
2024/03/05 11:18:37;;;;;;;11.00;5.93;;;29.40;33.10;;;;;;4985630;28;114213;-50
2024/03/05 11:21:13;;;;;;;17.20;6.40;;;30.00;33.10;;;;;;4972292;28;112855;-50
2024/03/05 11:23:54;;;;;;;14.07;6.55;;;30.50;32.40;;;;;;4986700;28;112795;-50
2024/03/05 11:26:22;;;;;;;14.80;8.15;;;30.40;32.50;;;;;;4985775;28;113166;-50
2024/03/05 11:28:48;;;;;;;15.88;7.32;;;30.30;33.20;;;;;;4985213;28;112937;-50
2024/03/05 11:31:19;;;;;;;12.98;7.28;;;30.40;33.00;;;;;;4986734;28;112954;-50
2024/03/05 11:33:46;;;;;;;13.95;7.57;;;30.00;32.40;;;;;;4986917;28;112708;-51
2024/03/05 11:36:22;;;;;;;14.45;7.63;;;29.60;33.40;;;;;;4985276;28;113406;-50
2024/03/05 11:39:20;;;;;;;12.73;7.50;;;29.30;34.40;;;;;;4985249;28;113717;-50
2024/03/05 11:41:47;;;;;;;17.20;6.25;;;30.30;33.80;;;;;;4986315;28;113098;-50
2024/03/05 11:44:31;;;;;;;12.68;5.70;;;30.40;31.90;;;;;;4986211;28;112740;-50
2024/03/05 11:46:57;;;;;;;17.38;5.70;;;31.50;31.10;;;;;;4985223;28;114159;-51
2024/03/05 11:49:23;;;;;;;14.27;5.78;;;31.70;29.80;;;;;;4985244;28;113934;-50
2024/03/05 11:51:50;;;;;;;12.77;6.10;;;30.30;31.10;;;;;;4986344;28;112935;-50
2024/03/05 11:54:17;;;;;;;14.63;6.45;;;30.30;32.20;;;;;;4987290;28;113090;-51
2024/03/05 11:56:45;;;;;;;16.20;6.20;;;30.20;32.40;;;;;;4988507;28;113597;-50
2024/03/05 11:59:14;;;;;;;13.82;7.60;;;30.40;32.80;;;;;;4988786;28;112787;-51
2024/03/05 12:01:42;;;;;;;18.85;7.93;;;31.20;32.40;;;;;;4989288;28;112835;-51
2024/03/05 12:04:11;;;;;;;15.50;8.27;;;31.10;31.60;;;;;;4989339;28;112715;-51
2024/03/05 12:06:43;;;;;;;14.60;7.82;;;30.70;33.10;;;;;;4988431;28;114995;-51
2024/03/05 12:09:19;;;;;;;15.68;6.82;;;31.30;33.50;;;;;;5018973;28;114113;-50
2024/03/05 12:12:10;;;;;;;16.17;7.35;;;31.50;30.70;;;;;;4989614;28;112595;-51
2024/03/05 12:14:39;;;;;;;15.05;7.38;;;31.60;31.30;;;;;;4989430;28;112726;-51
2024/03/05 12:17:08;;;;;;;14.98;6.30;;;30.90;32.90;;;;;;4988347;28;113577;-51
2024/03/05 12:19:34;;;;;;;13.50;6.72;;;31.30;32.10;;;;;;4984104;28;113335;-50
2024/03/05 12:22:01;;;;;;;14.07;6.95;;;31.90;30.90;;;;;;4979827;28;112497;-50
2024/03/05 12:24:31;;;;;;;14.95;6.50;;;32.00;30.20;;;;;;4989371;28;112728;-50
2024/03/05 12:26:57;;;;;;;15.43;5.30;;;32.60;29.40;;;;;;4988216;28;113254;-51
2024/03/05 12:29:33;;;;;;;14.88;6.53;;;32.50;29.40;;;;;;4987233;28;112652;-53
2024/03/05 12:32:03;;;;;;;13.95;5.88;;;31.80;30.20;;;;;;4988729;28;112549;-51
2024/03/05 12:34:29;;;;;;;16.90;6.43;;;31.80;30.10;;;;;;4989814;28;112584;-51